sensor_id;sensor_type;location;lat;lon;timestamp;pressure;altitude;pressure_sealevel;temperature;humidity
41862;BME280;27537;57.134;-2.136;2023-09-19T00:00:56;98676.69;;;10.18;100.00
41862;BME280;27537;57.134;-2.136;2023-09-19T00:03:23;98670.09;;;10.13;100.00
41862;BME280;27537;57.134;-2.136;2023-09-19T00:05:51;98675.31;;;10.13;100.00
41862;BME280;27537;57.134;-2.136;2023-09-19T00:08:17;98674.91;;;10.19;100.00
41862;BME280;27537;57.134;-2.136;2023-09-19T00:10:48;98659.34;;;10.04;100.00
41862;BME280;27537;57.134;-2.136;2023-09-19T00:13:15;98648.56;;;10.22;100.00
41862;BME280;27537;57.134;-2.136;2023-09-19T00:15:47;98664.16;;;10.36;100.00
41862;BME280;27537;57.134;-2.136;2023-09-19T00:18:18;98662.75;;;10.18;100.00
41862;BME280;27537;57.134;-2.136;2023-09-19T00:20:47;98657.34;;;10.21;100.00
41862;BME280;27537;57.134;-2.136;2023-09-19T00:23:16;98645.69;;;10.25;100.00
41862;BME280;27537;57.134;-2.136;2023-09-19T00:25:43;98660.56;;;10.24;100.00
41862;BME280;27537;57.134;-2.136;2023-09-19T00:28:09;98652.63;;;10.13;100.00
41862;BME280;27537;57.134;-2.136;2023-09-19T00:30:42;98652.75;;;10.12;100.00
41862;BME280;27537;57.134;-2.136;2023-09-19T00:33:11;98652.84;;;9.97;100.00
41862;BME280;27537;57.134;-2.136;2023-09-19T00:35:56;98651.91;;;10.11;100.00
41862;BME280;27537;57.134;-2.136;2023-09-19T00:38:27;98652.31;;;10.05;100.00
41862;BME280;27537;57.134;-2.136;2023-09-19T00:40:54;98647.19;;;10.03;100.00
41862;BME280;27537;57.134;-2.136;2023-09-19T00:43:24;98617.94;;;9.73;100.00
41862;BME280;27537;57.134;-2.136;2023-09-19T00:45:52;98658.50;;;10.04;100.00
41862;BME280;27537;57.134;-2.136;2023-09-19T00:48:24;98643.94;;;10.13;100.00
41862;BME280;27537;57.134;-2.136;2023-09-19T00:50:54;98639.88;;;10.08;100.00
41862;BME280;27537;57.134;-2.136;2023-09-19T00:53:28;98647.72;;;10.08;100.00
41862;BME280;27537;57.134;-2.136;2023-09-19T00:55:57;98629.84;;;10.02;100.00
41862;BME280;27537;57.134;-2.136;2023-09-19T00:58:24;98636.94;;;10.13;100.00
41862;BME280;27537;57.134;-2.136;2023-09-19T01:00:51;98650.31;;;10.08;100.00
41862;BME280;27537;57.134;-2.136;2023-09-19T01:03:18;98650.13;;;10.12;100.00
41862;BME280;27537;57.134;-2.136;2023-09-19T01:05:45;98648.06;;;10.04;100.00
41862;BME280;27537;57.134;-2.136;2023-09-19T01:08:12;98652.41;;;10.03;100.00
41862;BME280;27537;57.134;-2.136;2023-09-19T01:10:46;98657.56;;;9.92;100.00
41862;BME280;27537;57.134;-2.136;2023-09-19T01:13:39;98661.63;;;9.96;100.00
41862;BME280;27537;57.134;-2.136;2023-09-19T01:16:29;98655.56;;;10.08;100.00
41862;BME280;27537;57.134;-2.136;2023-09-19T01:22:26;98642.16;;;10.00;100.00
41862;BME280;27537;57.134;-2.136;2023-09-19T01:30:57;98646.16;;;9.80;100.00
41862;BME280;27537;57.134;-2.136;2023-09-19T01:33:27;98635.06;;;9.77;100.00
41862;BME280;27537;57.134;-2.136;2023-09-19T01:35:53;98635.41;;;9.72;100.00
41862;BME280;27537;57.134;-2.136;2023-09-19T01:38:24;98641.88;;;9.79;100.00
41862;BME280;27537;57.134;-2.136;2023-09-19T01:41:03;98652.00;;;9.84;100.00
41862;BME280;27537;57.134;-2.136;2023-09-19T01:43:37;98649.19;;;9.87;100.00
41862;BME280;27537;57.134;-2.136;2023-09-19T01:46:21;98652.97;;;9.96;100.00
41862;BME280;27537;57.134;-2.136;2023-09-19T01:51:49;98644.88;;;9.73;100.00
41862;BME280;27537;57.134;-2.136;2023-09-19T01:54:24;98643.53;;;9.67;100.00
41862;BME280;27537;57.134;-2.136;2023-09-19T01:57:09;98633.09;;;9.80;100.00
41862;BME280;27537;57.134;-2.136;2023-09-19T01:59:59;98636.41;;;9.82;100.00
41862;BME280;27537;57.134;-2.136;2023-09-19T02:02:37;98598.16;;;9.43;100.00
41862;BME280;27537;57.134;-2.136;2023-09-19T02:05:05;98633.81;;;9.69;100.00
41862;BME280;27537;57.134;-2.136;2023-09-19T02:07:35;98618.75;;;9.73;100.00
41862;BME280;27537;57.134;-2.136;2023-09-19T02:10:11;98620.22;;;9.64;100.00
41862;BME280;27537;57.134;-2.136;2023-09-19T02:12:38;98621.56;;;9.44;100.00
41862;BME280;27537;57.134;-2.136;2023-09-19T02:15:05;98612.56;;;9.48;100.00
41862;BME280;27537;57.134;-2.136;2023-09-19T02:17:33;98614.47;;;9.46;100.00
41862;BME280;27537;57.134;-2.136;2023-09-19T02:20:00;98620.84;;;9.55;100.00
41862;BME280;27537;57.134;-2.136;2023-09-19T02:22:27;98623.03;;;9.61;100.00
41862;BME280;27537;57.134;-2.136;2023-09-19T02:24:54;98607.16;;;9.64;100.00
41862;BME280;27537;57.134;-2.136;2023-09-19T02:27:21;98610.81;;;9.62;100.00
41862;BME280;27537;57.134;-2.136;2023-09-19T02:29:47;98606.13;;;9.67;100.00
41862;BME280;27537;57.134;-2.136;2023-09-19T02:32:16;98602.44;;;9.44;100.00
41862;BME280;27537;57.134;-2.136;2023-09-19T02:34:45;98603.66;;;9.38;100.00
41862;BME280;27537;57.134;-2.136;2023-09-19T02:37:11;98606.22;;;9.53;100.00
41862;BME280;27537;57.134;-2.136;2023-09-19T02:39:39;98591.78;;;9.47;100.00
41862;BME280;27537;57.134;-2.136;2023-09-19T02:42:06;98584.03;;;9.45;100.00
41862;BME280;27537;57.134;-2.136;2023-09-19T02:44:33;98586.25;;;9.52;100.00
41862;BME280;27537;57.134;-2.136;2023-09-19T02:47:00;98595.88;;;9.51;100.00
41862;BME280;27537;57.134;-2.136;2023-09-19T02:49:27;98579.03;;;9.42;100.00
41862;BME280;27537;57.134;-2.136;2023-09-19T02:51:53;98573.47;;;9.34;100.00
41862;BME280;27537;57.134;-2.136;2023-09-19T02:54:21;98579.25;;;9.39;100.00
41862;BME280;27537;57.134;-2.136;2023-09-19T02:56:48;98587.41;;;9.47;100.00
41862;BME280;27537;57.134;-2.136;2023-09-19T02:59:15;98582.38;;;9.44;100.00
41862;BME280;27537;57.134;-2.136;2023-09-19T03:01:45;98583.72;;;9.37;100.00
41862;BME280;27537;57.134;-2.136;2023-09-19T03:04:14;98589.06;;;9.36;100.00
41862;BME280;27537;57.134;-2.136;2023-09-19T03:06:46;98575.88;;;9.24;100.00
41862;BME280;27537;57.134;-2.136;2023-09-19T03:09:15;98586.00;;;9.29;100.00
41862;BME280;27537;57.134;-2.136;2023-09-19T03:11:42;98586.63;;;9.20;100.00
41862;BME280;27537;57.134;-2.136;2023-09-19T03:14:10;98585.47;;;9.11;100.00
41862;BME280;27537;57.134;-2.136;2023-09-19T03:16:38;98567.19;;;9.11;100.00
41862;BME280;27537;57.134;-2.136;2023-09-19T03:19:05;98564.56;;;8.98;100.00
41862;BME280;27537;57.134;-2.136;2023-09-19T03:21:32;98576.34;;;9.04;100.00
41862;BME280;27537;57.134;-2.136;2023-09-19T03:23:59;98571.56;;;9.10;100.00
41862;BME280;27537;57.134;-2.136;2023-09-19T03:26:25;98570.41;;;9.02;100.00
41862;BME280;27537;57.134;-2.136;2023-09-19T03:28:53;98558.25;;;8.88;100.00
41862;BME280;27537;57.134;-2.136;2023-09-19T03:31:20;98551.19;;;9.03;100.00
41862;BME280;27537;57.134;-2.136;2023-09-19T03:33:47;98560.97;;;8.99;100.00
41862;BME280;27537;57.134;-2.136;2023-09-19T03:36:13;98557.53;;;8.86;100.00
41862;BME280;27537;57.134;-2.136;2023-09-19T03:38:40;98542.06;;;8.83;100.00
41862;BME280;27537;57.134;-2.136;2023-09-19T03:41:07;98557.53;;;8.86;100.00
41862;BME280;27537;57.134;-2.136;2023-09-19T03:43:40;98554.41;;;8.93;100.00
41862;BME280;27537;57.134;-2.136;2023-09-19T03:46:08;98554.22;;;8.97;100.00
41862;BME280;27537;57.134;-2.136;2023-09-19T03:48:35;98560.88;;;8.88;100.00
41862;BME280;27537;57.134;-2.136;2023-09-19T03:51:02;98571.41;;;8.86;100.00
41862;BME280;27537;57.134;-2.136;2023-09-19T03:53:29;98566.69;;;8.79;100.00
41862;BME280;27537;57.134;-2.136;2023-09-19T03:55:56;98555.00;;;8.84;100.00
41862;BME280;27537;57.134;-2.136;2023-09-19T03:58:23;98537.75;;;8.82;100.00
41862;BME280;27537;57.134;-2.136;2023-09-19T04:00:50;98545.00;;;8.91;100.00
41862;BME280;27537;57.134;-2.136;2023-09-19T04:03:17;98543.53;;;8.87;100.00
41862;BME280;27537;57.134;-2.136;2023-09-19T04:05:48;98544.97;;;8.78;100.00
41862;BME280;27537;57.134;-2.136;2023-09-19T04:08:20;98551.72;;;8.68;100.00
41862;BME280;27537;57.134;-2.136;2023-09-19T04:11:03;98542.84;;;8.70;100.00
41862;BME280;27537;57.134;-2.136;2023-09-19T04:13:29;98541.03;;;8.85;100.00
41862;BME280;27537;57.134;-2.136;2023-09-19T04:15:56;98539.78;;;8.91;100.00
41862;BME280;27537;57.134;-2.136;2023-09-19T04:18:23;98514.09;;;8.85;100.00
41862;BME280;27537;57.134;-2.136;2023-09-19T04:20:50;98533.25;;;9.11;100.00
41862;BME280;27537;57.134;-2.136;2023-09-19T04:23:17;98517.59;;;9.11;100.00
41862;BME280;27537;57.134;-2.136;2023-09-19T04:25:44;98516.75;;;9.10;100.00
41862;BME280;27537;57.134;-2.136;2023-09-19T04:28:11;98495.28;;;8.80;100.00
41862;BME280;27537;57.134;-2.136;2023-09-19T04:30:38;98516.84;;;8.96;100.00
41862;BME280;27537;57.134;-2.136;2023-09-19T04:33:07;98516.94;;;8.95;100.00
41862;BME280;27537;57.134;-2.136;2023-09-19T04:35:34;98506.88;;;8.88;100.00
41862;BME280;27537;57.134;-2.136;2023-09-19T04:38:01;98507.94;;;8.86;100.00
41862;BME280;27537;57.134;-2.136;2023-09-19T04:40:29;98515.78;;;8.99;100.00
41862;BME280;27537;57.134;-2.136;2023-09-19T04:43:00;98506.28;;;8.98;100.00
41862;BME280;27537;57.134;-2.136;2023-09-19T04:45:30;98484.28;;;9.02;100.00
41862;BME280;27537;57.134;-2.136;2023-09-19T04:47:56;98500.16;;;9.24;100.00
41862;BME280;27537;57.134;-2.136;2023-09-19T04:50:23;98495.97;;;9.35;100.00
41862;BME280;27537;57.134;-2.136;2023-09-19T04:52:53;98485.44;;;9.10;100.00
41862;BME280;27537;57.134;-2.136;2023-09-19T04:55:20;98507.47;;;9.32;100.00
41862;BME280;27537;57.134;-2.136;2023-09-19T04:57:49;98499.00;;;9.28;100.00
41862;BME280;27537;57.134;-2.136;2023-09-19T05:00:20;98492.63;;;9.32;100.00
41862;BME280;27537;57.134;-2.136;2023-09-19T05:02:56;98508.63;;;9.41;100.00
41862;BME280;27537;57.134;-2.136;2023-09-19T05:05:24;98491.88;;;9.43;100.00
41862;BME280;27537;57.134;-2.136;2023-09-19T05:07:52;98485.84;;;9.43;100.00
41862;BME280;27537;57.134;-2.136;2023-09-19T05:10:21;98489.56;;;9.64;100.00
41862;BME280;27537;57.134;-2.136;2023-09-19T05:12:48;98480.47;;;9.83;100.00
41862;BME280;27537;57.134;-2.136;2023-09-19T05:15:18;98462.78;;;9.86;100.00
41862;BME280;27537;57.134;-2.136;2023-09-19T05:17:51;98475.28;;;9.94;100.00
41862;BME280;27537;57.134;-2.136;2023-09-19T05:20:24;98471.00;;;9.93;100.00
41862;BME280;27537;57.134;-2.136;2023-09-19T05:23:04;98468.91;;;9.98;100.00
41862;BME280;27537;57.134;-2.136;2023-09-19T05:25:36;98466.28;;;9.98;100.00
41862;BME280;27537;57.134;-2.136;2023-09-19T05:28:04;98466.31;;;9.85;100.00
41862;BME280;27537;57.134;-2.136;2023-09-19T05:30:32;98472.81;;;9.80;100.00
41862;BME280;27537;57.134;-2.136;2023-09-19T05:32:59;98460.06;;;9.75;100.00
41862;BME280;27537;57.134;-2.136;2023-09-19T05:35:26;98452.56;;;9.71;100.00
41862;BME280;27537;57.134;-2.136;2023-09-19T05:37:55;98473.00;;;9.89;100.00
41862;BME280;27537;57.134;-2.136;2023-09-19T05:40:24;98473.41;;;9.96;100.00
41862;BME280;27537;57.134;-2.136;2023-09-19T05:42:55;98467.88;;;10.01;100.00
41862;BME280;27537;57.134;-2.136;2023-09-19T05:45:27;98464.28;;;10.02;100.00
41862;BME280;27537;57.134;-2.136;2023-09-19T05:47:55;98459.47;;;10.08;100.00
41862;BME280;27537;57.134;-2.136;2023-09-19T05:50:31;98446.69;;;10.17;100.00
41862;BME280;27537;57.134;-2.136;2023-09-19T05:52:58;98450.94;;;10.18;100.00
41862;BME280;27537;57.134;-2.136;2023-09-19T05:55:25;98451.72;;;10.07;100.00
41862;BME280;27537;57.134;-2.136;2023-09-19T05:57:52;98441.88;;;10.11;100.00
41862;BME280;27537;57.134;-2.136;2023-09-19T06:00:20;98439.88;;;10.14;100.00
41862;BME280;27537;57.134;-2.136;2023-09-19T06:02:57;98449.22;;;10.30;100.00
41862;BME280;27537;57.134;-2.136;2023-09-19T06:05:25;98438.38;;;10.36;100.00
41862;BME280;27537;57.134;-2.136;2023-09-19T06:08:08;98442.03;;;10.33;100.00
41862;BME280;27537;57.134;-2.136;2023-09-19T06:10:35;98432.72;;;10.29;100.00
41862;BME280;27537;57.134;-2.136;2023-09-19T06:13:03;98430.78;;;10.20;100.00
41862;BME280;27537;57.134;-2.136;2023-09-19T06:15:36;98444.59;;;10.09;100.00
41862;BME280;27537;57.134;-2.136;2023-09-19T06:18:03;98445.97;;;10.15;100.00
41862;BME280;27537;57.134;-2.136;2023-09-19T06:20:31;98435.53;;;10.02;100.00
41862;BME280;27537;57.134;-2.136;2023-09-19T06:23:00;98434.75;;;10.13;100.00
41862;BME280;27537;57.134;-2.136;2023-09-19T06:25:28;98424.47;;;10.22;100.00
41862;BME280;27537;57.134;-2.136;2023-09-19T06:27:55;98421.50;;;10.40;100.00
41862;BME280;27537;57.134;-2.136;2023-09-19T06:30:23;98406.97;;;10.36;100.00
41862;BME280;27537;57.134;-2.136;2023-09-19T06:32:58;98422.47;;;10.50;100.00
41862;BME280;27537;57.134;-2.136;2023-09-19T06:35:27;98414.16;;;10.56;100.00
41862;BME280;27537;57.134;-2.136;2023-09-19T06:37:56;98402.97;;;10.54;100.00
41862;BME280;27537;57.134;-2.136;2023-09-19T06:40:25;98409.41;;;10.61;100.00
41862;BME280;27537;57.134;-2.136;2023-09-19T06:42:53;98394.94;;;10.80;100.00
41862;BME280;27537;57.134;-2.136;2023-09-19T06:45:20;98387.94;;;10.80;100.00
41862;BME280;27537;57.134;-2.136;2023-09-19T06:47:50;98392.13;;;11.06;100.00
41862;BME280;27537;57.134;-2.136;2023-09-19T06:50:22;98383.44;;;11.05;100.00
41862;BME280;27537;57.134;-2.136;2023-09-19T06:52:51;98389.28;;;11.09;100.00
41862;BME280;27537;57.134;-2.136;2023-09-19T06:55:19;98387.47;;;11.09;100.00
41862;BME280;27537;57.134;-2.136;2023-09-19T06:57:48;98395.00;;;11.14;100.00
41862;BME280;27537;57.134;-2.136;2023-09-19T07:00:16;98390.69;;;11.13;100.00
41862;BME280;27537;57.134;-2.136;2023-09-19T07:03:02;98382.25;;;11.09;100.00
41862;BME280;27537;57.134;-2.136;2023-09-19T07:05:32;98385.59;;;11.23;100.00
41862;BME280;27537;57.134;-2.136;2023-09-19T07:07:59;98378.31;;;11.15;100.00
41862;BME280;27537;57.134;-2.136;2023-09-19T07:10:28;98386.66;;;11.20;100.00
41862;BME280;27537;57.134;-2.136;2023-09-19T07:13:05;98396.44;;;11.07;100.00
41862;BME280;27537;57.134;-2.136;2023-09-19T07:15:38;98392.34;;;11.02;100.00
41862;BME280;27537;57.134;-2.136;2023-09-19T07:18:08;98380.22;;;11.01;100.00
41862;BME280;27537;57.134;-2.136;2023-09-19T07:20:38;98377.47;;;10.92;100.00
41862;BME280;27537;57.134;-2.136;2023-09-19T07:23:07;98378.66;;;10.99;100.00
41862;BME280;27537;57.134;-2.136;2023-09-19T07:25:35;98361.28;;;10.87;100.00
41862;BME280;27537;57.134;-2.136;2023-09-19T07:28:03;98375.69;;;11.04;100.00
41862;BME280;27537;57.134;-2.136;2023-09-19T07:30:36;98372.94;;;10.94;100.00
41862;BME280;27537;57.134;-2.136;2023-09-19T07:33:10;98377.72;;;11.11;100.00
41862;BME280;27537;57.134;-2.136;2023-09-19T07:35:45;98373.22;;;11.25;100.00
41862;BME280;27537;57.134;-2.136;2023-09-19T07:38:12;98371.63;;;11.45;100.00
41862;BME280;27537;57.134;-2.136;2023-09-19T07:40:39;98373.53;;;11.31;100.00
41862;BME280;27537;57.134;-2.136;2023-09-19T07:43:06;98370.22;;;11.40;100.00
41862;BME280;27537;57.134;-2.136;2023-09-19T07:45:33;98378.53;;;11.34;100.00
41862;BME280;27537;57.134;-2.136;2023-09-19T07:48:00;98375.69;;;11.15;100.00
41862;BME280;27537;57.134;-2.136;2023-09-19T07:50:31;98364.88;;;11.19;100.00
41862;BME280;27537;57.134;-2.136;2023-09-19T07:52:58;98372.38;;;11.35;100.00
41862;BME280;27537;57.134;-2.136;2023-09-19T07:55:25;98342.94;;;11.20;100.00
41862;BME280;27537;57.134;-2.136;2023-09-19T07:57:52;98368.53;;;11.39;100.00
41862;BME280;27537;57.134;-2.136;2023-09-19T08:00:19;98348.31;;;11.08;100.00
41862;BME280;27537;57.134;-2.136;2023-09-19T08:02:46;98359.28;;;11.13;100.00
41862;BME280;27537;57.134;-2.136;2023-09-19T08:05:24;98354.97;;;11.34;100.00
41862;BME280;27537;57.134;-2.136;2023-09-19T08:07:51;98365.19;;;11.49;100.00
41862;BME280;27537;57.134;-2.136;2023-09-19T08:10:19;98365.44;;;11.57;100.00
41862;BME280;27537;57.134;-2.136;2023-09-19T08:12:47;98355.88;;;11.67;100.00
41862;BME280;27537;57.134;-2.136;2023-09-19T08:15:17;98345.19;;;11.48;100.00
41862;BME280;27537;57.134;-2.136;2023-09-19T08:17:49;98344.41;;;11.68;100.00
41862;BME280;27537;57.134;-2.136;2023-09-19T08:20:17;98339.31;;;11.67;100.00
41862;BME280;27537;57.134;-2.136;2023-09-19T08:22:48;98333.81;;;11.70;100.00
41862;BME280;27537;57.134;-2.136;2023-09-19T08:25:16;98322.44;;;11.48;100.00
41862;BME280;27537;57.134;-2.136;2023-09-19T08:27:45;98315.88;;;11.54;100.00
41862;BME280;27537;57.134;-2.136;2023-09-19T08:30:17;98325.66;;;11.84;100.00
41862;BME280;27537;57.134;-2.136;2023-09-19T08:32:44;98326.25;;;11.88;100.00
41862;BME280;27537;57.134;-2.136;2023-09-19T08:35:13;98318.91;;;12.14;100.00
41862;BME280;27537;57.134;-2.136;2023-09-19T08:37:42;98324.34;;;12.01;100.00
41862;BME280;27537;57.134;-2.136;2023-09-19T08:40:09;98315.72;;;12.10;100.00
41862;BME280;27537;57.134;-2.136;2023-09-19T08:42:53;98316.38;;;12.45;100.00
41862;BME280;27537;57.134;-2.136;2023-09-19T08:45:21;98308.84;;;12.61;100.00
41862;BME280;27537;57.134;-2.136;2023-09-19T08:48:00;98306.34;;;12.60;100.00
41862;BME280;27537;57.134;-2.136;2023-09-19T08:50:29;98287.50;;;12.76;100.00
41862;BME280;27537;57.134;-2.136;2023-09-19T08:53:00;98289.22;;;12.86;100.00
41862;BME280;27537;57.134;-2.136;2023-09-19T08:55:28;98284.31;;;12.72;100.00
41862;BME280;27537;57.134;-2.136;2023-09-19T08:58:00;98280.09;;;12.60;100.00
41862;BME280;27537;57.134;-2.136;2023-09-19T09:00:28;98292.97;;;12.63;100.00
41862;BME280;27537;57.134;-2.136;2023-09-19T09:02:58;98299.69;;;12.77;100.00
41862;BME280;27537;57.134;-2.136;2023-09-19T09:05:25;98292.44;;;12.69;100.00
41862;BME280;27537;57.134;-2.136;2023-09-19T09:07:54;98287.31;;;12.67;100.00
41862;BME280;27537;57.134;-2.136;2023-09-19T09:10:23;98286.84;;;12.83;100.00
41862;BME280;27537;57.134;-2.136;2023-09-19T09:12:53;98302.13;;;12.99;100.00
41862;BME280;27537;57.134;-2.136;2023-09-19T09:15:24;98289.41;;;13.04;100.00
41862;BME280;27537;57.134;-2.136;2023-09-19T09:17:51;98274.59;;;12.94;100.00
41862;BME280;27537;57.134;-2.136;2023-09-19T09:20:22;98268.53;;;13.03;100.00
41862;BME280;27537;57.134;-2.136;2023-09-19T09:22:53;98264.84;;;12.75;100.00
41862;BME280;27537;57.134;-2.136;2023-09-19T09:25:22;98264.06;;;12.84;100.00
41862;BME280;27537;57.134;-2.136;2023-09-19T09:27:59;98260.22;;;12.98;100.00
41862;BME280;27537;57.134;-2.136;2023-09-19T09:30:36;98251.00;;;13.03;100.00
41862;BME280;27537;57.134;-2.136;2023-09-19T09:33:11;98252.13;;;12.80;100.00
41862;BME280;27537;57.134;-2.136;2023-09-19T09:38:23;98254.41;;;12.94;100.00
41862;BME280;27537;57.134;-2.136;2023-09-19T09:40:59;98256.13;;;13.15;100.00
41862;BME280;27537;57.134;-2.136;2023-09-19T09:43:37;98253.50;;;13.15;100.00
41862;BME280;27537;57.134;-2.136;2023-09-19T09:51:41;98226.94;;;13.08;100.00
41862;BME280;27537;57.134;-2.136;2023-09-19T09:54:13;98210.31;;;12.88;100.00
41862;BME280;27537;57.134;-2.136;2023-09-19T09:57:07;98246.56;;;13.14;100.00
41862;BME280;27537;57.134;-2.136;2023-09-19T09:59:56;98252.16;;;13.30;100.00
41862;BME280;27537;57.134;-2.136;2023-09-19T10:02:42;98262.41;;;13.33;100.00
41862;BME280;27537;57.134;-2.136;2023-09-19T10:05:20;98252.16;;;13.30;100.00
41862;BME280;27537;57.134;-2.136;2023-09-19T10:07:50;98238.16;;;13.20;100.00
41862;BME280;27537;57.134;-2.136;2023-09-19T10:10:33;98245.78;;;13.23;100.00
41862;BME280;27537;57.134;-2.136;2023-09-19T10:13:11;98250.19;;;13.13;100.00
41862;BME280;27537;57.134;-2.136;2023-09-19T10:15:48;98252.50;;;13.06;100.00
41862;BME280;27537;57.134;-2.136;2023-09-19T10:18:23;98252.00;;;13.12;100.00
41862;BME280;27537;57.134;-2.136;2023-09-19T10:20:51;98248.50;;;13.02;100.00
41862;BME280;27537;57.134;-2.136;2023-09-19T10:23:20;98252.94;;;13.11;100.00
41862;BME280;27537;57.134;-2.136;2023-09-19T10:25:50;98238.19;;;12.79;100.00
41862;BME280;27537;57.134;-2.136;2023-09-19T10:28:18;98251.50;;;12.87;100.00
41862;BME280;27537;57.134;-2.136;2023-09-19T10:30:51;98239.63;;;12.93;100.00
41862;BME280;27537;57.134;-2.136;2023-09-19T10:33:19;98236.44;;;12.99;100.00
41862;BME280;27537;57.134;-2.136;2023-09-19T10:35:53;98236.44;;;12.99;100.00
41862;BME280;27537;57.134;-2.136;2023-09-19T10:38:24;98238.06;;;12.81;100.00
41862;BME280;27537;57.134;-2.136;2023-09-19T10:40:53;98242.13;;;13.04;100.00
41862;BME280;27537;57.134;-2.136;2023-09-19T10:43:23;98228.56;;;12.99;100.00
41862;BME280;27537;57.134;-2.136;2023-09-19T10:45:53;98228.59;;;13.09;100.00
41862;BME280;27537;57.134;-2.136;2023-09-19T10:48:23;98217.00;;;13.21;100.00
41862;BME280;27537;57.134;-2.136;2023-09-19T10:51:22;98228.56;;;13.50;100.00
41862;BME280;27537;57.134;-2.136;2023-09-19T10:56:32;98216.25;;;13.70;100.00
41862;BME280;27537;57.134;-2.136;2023-09-19T10:59:15;98220.00;;;13.67;100.00
41862;BME280;27537;57.134;-2.136;2023-09-19T11:01:49;98226.75;;;13.79;100.00
41862;BME280;27537;57.134;-2.136;2023-09-19T11:04:31;98216.06;;;14.00;100.00
41862;BME280;27537;57.134;-2.136;2023-09-19T11:09:51;98217.88;;;14.00;100.00
41862;BME280;27537;57.134;-2.136;2023-09-19T11:27:09;98232.19;;;14.35;100.00
41862;BME280;27537;57.134;-2.136;2023-09-19T11:29:36;98230.91;;;14.49;100.00
41862;BME280;27537;57.134;-2.136;2023-09-19T11:32:04;98227.31;;;14.59;100.00
41862;BME280;27537;57.134;-2.136;2023-09-19T11:34:42;98236.56;;;14.64;100.00
41862;BME280;27537;57.134;-2.136;2023-09-19T11:40:06;98234.50;;;14.95;100.00
41862;BME280;27537;57.134;-2.136;2023-09-19T11:42:48;98231.59;;;15.16;100.00
41862;BME280;27537;57.134;-2.136;2023-09-19T11:48:24;98239.81;;;15.31;100.00
41862;BME280;27537;57.134;-2.136;2023-09-19T11:50:53;98241.75;;;15.11;100.00
41862;BME280;27537;57.134;-2.136;2023-09-19T11:53:22;98228.09;;;14.97;100.00
41862;BME280;27537;57.134;-2.136;2023-09-19T11:55:49;98229.66;;;14.90;100.00
41862;BME280;27537;57.134;-2.136;2023-09-19T11:58:17;98222.78;;;14.79;100.00
41862;BME280;27537;57.134;-2.136;2023-09-19T12:00:54;98232.34;;;14.80;100.00
41862;BME280;27537;57.134;-2.136;2023-09-19T12:03:21;98241.97;;;14.62;100.00
41862;BME280;27537;57.134;-2.136;2023-09-19T12:05:49;98244.91;;;14.59;100.00
41862;BME280;27537;57.134;-2.136;2023-09-19T12:08:16;98248.00;;;14.82;100.00
41862;BME280;27537;57.134;-2.136;2023-09-19T12:10:50;98231.19;;;14.93;100.00
41862;BME280;27537;57.134;-2.136;2023-09-19T12:13:21;98235.84;;;14.99;100.00
41862;BME280;27537;57.134;-2.136;2023-09-19T12:15:48;98225.88;;;15.21;100.00
41862;BME280;27537;57.134;-2.136;2023-09-19T12:18:28;98214.53;;;14.92;100.00
41862;BME280;27537;57.134;-2.136;2023-09-19T12:20:56;98202.31;;;14.73;100.00
41862;BME280;27537;57.134;-2.136;2023-09-19T12:23:24;98229.41;;;14.84;100.00
41862;BME280;27537;57.134;-2.136;2023-09-19T12:25:54;98225.66;;;15.14;100.00
41862;BME280;27537;57.134;-2.136;2023-09-19T12:28:26;98234.69;;;15.11;100.00
41862;BME280;27537;57.134;-2.136;2023-09-19T12:30:53;98201.56;;;15.09;100.00
41862;BME280;27537;57.134;-2.136;2023-09-19T12:33:24;98226.28;;;15.44;100.00
41862;BME280;27537;57.134;-2.136;2023-09-19T12:35:54;98227.66;;;15.02;100.00
41862;BME280;27537;57.134;-2.136;2023-09-19T12:38:27;98207.00;;;14.97;100.00
41862;BME280;27537;57.134;-2.136;2023-09-19T12:41:02;98207.63;;;14.54;100.00
41862;BME280;27537;57.134;-2.136;2023-09-19T12:43:30;98215.34;;;14.55;100.00
41862;BME280;27537;57.134;-2.136;2023-09-19T12:45:59;98227.28;;;14.97;100.00
41862;BME280;27537;57.134;-2.136;2023-09-19T12:48:26;98234.06;;;14.72;100.00
41862;BME280;27537;57.134;-2.136;2023-09-19T12:51:08;98226.88;;;15.19;100.00
41862;BME280;27537;57.134;-2.136;2023-09-19T12:53:43;98232.34;;;15.26;100.00
41862;BME280;27537;57.134;-2.136;2023-09-19T12:56:16;98226.94;;;15.28;100.00
41862;BME280;27537;57.134;-2.136;2023-09-19T13:01:23;98218.44;;;15.34;100.00
41862;BME280;27537;57.134;-2.136;2023-09-19T13:04:17;98223.63;;;15.26;100.00
41862;BME280;27537;57.134;-2.136;2023-09-19T13:06:51;98225.22;;;15.36;100.00
41862;BME280;27537;57.134;-2.136;2023-09-19T13:09:20;98222.91;;;15.06;100.00
41862;BME280;27537;57.134;-2.136;2023-09-19T13:11:48;98239.94;;;15.11;100.00
41862;BME280;27537;57.134;-2.136;2023-09-19T13:19:40;98231.06;;;15.12;100.00
41862;BME280;27537;57.134;-2.136;2023-09-19T13:22:45;98234.81;;;15.10;100.00
41862;BME280;27537;57.134;-2.136;2023-09-19T13:25:25;98248.00;;;15.10;100.00
41862;BME280;27537;57.134;-2.136;2023-09-19T13:27:55;98251.41;;;15.20;100.00
41862;BME280;27537;57.134;-2.136;2023-09-19T13:30:27;98240.94;;;15.10;100.00
41862;BME280;27537;57.134;-2.136;2023-09-19T13:33:05;98233.28;;;14.89;100.00
41862;BME280;27537;57.134;-2.136;2023-09-19T13:35:38;98221.97;;;14.79;100.00
41862;BME280;27537;57.134;-2.136;2023-09-19T13:38:06;98239.88;;;14.66;100.00
41862;BME280;27537;57.134;-2.136;2023-09-19T13:40:38;98227.16;;;14.61;100.00
41862;BME280;27537;57.134;-2.136;2023-09-19T13:43:08;98239.31;;;14.72;100.00
41862;BME280;27537;57.134;-2.136;2023-09-19T13:45:35;98225.06;;;14.55;100.00
41862;BME280;27537;57.134;-2.136;2023-09-19T13:48:03;98234.88;;;14.72;100.00
41862;BME280;27537;57.134;-2.136;2023-09-19T13:50:30;98235.47;;;14.66;100.00
41862;BME280;27537;57.134;-2.136;2023-09-19T13:52:57;98238.53;;;14.61;100.00
41862;BME280;27537;57.134;-2.136;2023-09-19T13:55:27;98221.63;;;14.44;100.00